VLG94JC LECO-EGGP
Flight info
| Callsign | VLG94JC |
|---|---|
| Flight time | 1h 28m |
| Altitude | 32000 |
| Route | KORAV N728 KORUL/N0459F360 DCT DOLUR/N0457F350 DCT PEPZE |
| Aircraft | A320/M-SDE3FGHIRWY/LB1 |
Departure
| Time | 2026-05-07 11:46 |
|---|---|
| Airport | A Coruña Airport (LECO) |
Arrival
| Time | 2026-05-07 13:15 |
|---|---|
| Airport | Liverpool John Lennon Airport (EGGP) |
| Time | Latitude | Longitude | Altitude | Speed | Heading |
|---|---|---|---|---|---|
| 2026-05-07 11:25 | 43.30166 | -8.38082 | 274 ft | 0 kts | 323° |
| 2026-05-07 11:37 | 43.30155 | -8.38071 | 276 ft | 2 kts | 323° |
| 2026-05-07 11:38 | 43.30141 | -8.38056 | 277 ft | 3 kts | 300° |
| 2026-05-07 11:38 | 43.30135 | -8.38033 | 280 ft | 3 kts | 264° |
| 2026-05-07 11:38 | 43.30137 | -8.38018 | 280 ft | 0 kts | 246° |
| 2026-05-07 11:40 | 43.30136 | -8.38019 | 281 ft | 1 kts | 240° |
| 2026-05-07 11:40 | 43.30120 | -8.38035 | 276 ft | 3 kts | 218° |
| 2026-05-07 11:41 | 43.30104 | -8.38050 | 274 ft | 4 kts | 212° |
| 2026-05-07 11:41 | 43.30071 | -8.38068 | 274 ft | 7 kts | 197° |
| 2026-05-07 11:41 | 43.30019 | -8.38074 | 274 ft | 7 kts | 176° |
| 2026-05-07 11:41 | 43.29973 | -8.38047 | 276 ft | 7 kts | 140° |
| 2026-05-07 11:42 | 43.29950 | -8.38010 | 274 ft | 3 kts | 129° |
| 2026-05-07 11:42 | 43.29939 | -8.37994 | 274 ft | 4 kts | 137° |
| 2026-05-07 11:42 | 43.29888 | -8.37990 | 273 ft | 11 kts | 201° |
| 2026-05-07 11:42 | 43.29815 | -8.38048 | 273 ft | 13 kts | 212° |
| 2026-05-07 11:43 | 43.29740 | -8.38110 | 272 ft | 13 kts | 211° |
| 2026-05-07 11:43 | 43.29661 | -8.38174 | 271 ft | 14 kts | 210° |
| 2026-05-07 11:43 | 43.29571 | -8.38247 | 270 ft | 16 kts | 211° |
| 2026-05-07 11:43 | 43.29472 | -8.38328 | 270 ft | 18 kts | 210° |
| 2026-05-07 11:44 | 43.29359 | -8.38420 | 270 ft | 20 kts | 212° |
| 2026-05-07 11:44 | 43.29254 | -8.38533 | 271 ft | 14 kts | 244° |
| 2026-05-07 11:44 | 43.29215 | -8.38602 | 270 ft | 6 kts | 199° |
| 2026-05-07 11:44 | 43.29185 | -8.38578 | 270 ft | 5 kts | 127° |
| 2026-05-07 11:45 | 43.29193 | -8.38557 | 270 ft | 3 kts | 49° |
| 2026-05-07 11:45 | 43.29215 | -8.38539 | 271 ft | 5 kts | 26° |
| 2026-05-07 11:45 | 43.29226 | -8.38530 | 271 ft | 0 kts | 31° |
| 2026-05-07 11:46 | 43.29413 | -8.38379 | 270 ft | 70 kts | 30° |
| 2026-05-07 11:46 | 43.30024 | -8.37877 | 274 ft | 132 kts | 31° |
| 2026-05-07 11:46 | 43.30921 | -8.37147 | 576 ft | 153 kts | 30° |
| 2026-05-07 11:46 | 43.31721 | -8.36235 | 1334 ft | 150 kts | 50° |
| 2026-05-07 11:47 | 43.32258 | -8.34951 | 1884 ft | 161 kts | 69° |
| 2026-05-07 11:47 | 43.32670 | -8.33540 | 2501 ft | 157 kts | 68° |
| 2026-05-07 11:47 | 43.33090 | -8.32170 | 3054 ft | 155 kts | 68° |
| 2026-05-07 11:47 | 43.33537 | -8.30808 | 3547 ft | 157 kts | 66° |
| 2026-05-07 11:48 | 43.34031 | -8.29425 | 3916 ft | 168 kts | 64° |
| 2026-05-07 11:48 | 43.34603 | -8.27971 | 4286 ft | 178 kts | 63° |
| 2026-05-07 11:48 | 43.35261 | -8.26475 | 4643 ft | 190 kts | 55° |
| 2026-05-07 11:48 | 43.36195 | -8.25028 | 4838 ft | 214 kts | 46° |
| 2026-05-07 11:49 | 43.37331 | -8.23534 | 5039 ft | 239 kts | 44° |
| 2026-05-07 11:49 | 43.38591 | -8.21935 | 5519 ft | 253 kts | 44° |
| 2026-05-07 11:49 | 43.39923 | -8.20240 | 6046 ft | 269 kts | 44° |
| 2026-05-07 11:49 | 43.41329 | -8.18434 | 6548 ft | 285 kts | 44° |
| 2026-05-07 11:50 | 43.42831 | -8.16483 | 7065 ft | 300 kts | 44° |
| 2026-05-07 11:50 | 43.44382 | -8.14449 | 7568 ft | 315 kts | 44° |
| 2026-05-07 11:50 | 43.46000 | -8.12313 | 8086 ft | 329 kts | 45° |
| 2026-05-07 11:50 | 43.47680 | -8.10087 | 8609 ft | 342 kts | 45° |
| 2026-05-07 11:51 | 43.49420 | -8.07775 | 9145 ft | 353 kts | 45° |
| 2026-05-07 11:51 | 43.51213 | -8.05385 | 9676 ft | 364 kts | 45° |
| 2026-05-07 11:51 | 43.53059 | -8.02922 | 10176 ft | 374 kts | 45° |
| 2026-05-07 11:51 | 43.54946 | -8.00405 | 10667 ft | 383 kts | 45° |
| 2026-05-07 11:52 | 43.56885 | -7.97823 | 11172 ft | 392 kts | 45° |
| 2026-05-07 11:52 | 43.58864 | -7.95188 | 11680 ft | 399 kts | 45° |
| 2026-05-07 11:52 | 43.60876 | -7.92505 | 12196 ft | 405 kts | 45° |
| 2026-05-07 11:52 | 43.62945 | -7.89740 | 12728 ft | 411 kts | 45° |
| 2026-05-07 11:53 | 43.65037 | -7.87091 | 13252 ft | 417 kts | 39° |
| 2026-05-07 11:53 | 43.67493 | -7.84837 | 13794 ft | 422 kts | 30° |
| 2026-05-07 11:53 | 43.70066 | -7.82836 | 14281 ft | 426 kts | 29° |
| 2026-05-07 11:53 | 43.72653 | -7.80816 | 14778 ft | 429 kts | 30° |
| 2026-05-07 11:54 | 43.75251 | -7.78782 | 15272 ft | 431 kts | 30° |
| 2026-05-07 11:54 | 43.77868 | -7.76729 | 15777 ft | 433 kts | 29° |
| 2026-05-07 11:54 | 43.80494 | -7.74665 | 16295 ft | 434 kts | 29° |
| 2026-05-07 11:54 | 43.83124 | -7.72594 | 16821 ft | 436 kts | 30° |
| 2026-05-07 11:55 | 43.85758 | -7.70517 | 17352 ft | 436 kts | 29° |
| 2026-05-07 11:55 | 43.88395 | -7.68433 | 17889 ft | 437 kts | 30° |
| 2026-05-07 11:55 | 43.91040 | -7.66343 | 18415 ft | 437 kts | 29° |
| 2026-05-07 11:55 | 43.93684 | -7.64257 | 18890 ft | 438 kts | 29° |
| 2026-05-07 11:56 | 43.96336 | -7.62165 | 19370 ft | 438 kts | 29° |
| 2026-05-07 11:56 | 43.98981 | -7.60077 | 19871 ft | 438 kts | 29° |
| 2026-05-07 11:56 | 44.01626 | -7.57986 | 20375 ft | 437 kts | 29° |
| 2026-05-07 11:56 | 44.04265 | -7.55893 | 20890 ft | 437 kts | 29° |
| 2026-05-07 11:57 | 44.06901 | -7.53790 | 21407 ft | 436 kts | 29° |
| 2026-05-07 11:57 | 44.09529 | -7.51695 | 21935 ft | 436 kts | 29° |
| 2026-05-07 11:57 | 44.12159 | -7.49597 | 22475 ft | 435 kts | 29° |
| 2026-05-07 11:57 | 44.14783 | -7.47505 | 23026 ft | 434 kts | 29° |
| 2026-05-07 11:58 | 44.17397 | -7.45420 | 23572 ft | 433 kts | 29° |
| 2026-05-07 11:58 | 44.20007 | -7.43339 | 24043 ft | 432 kts | 29° |
| 2026-05-07 11:58 | 44.22612 | -7.41268 | 24532 ft | 430 kts | 28° |
| 2026-05-07 11:58 | 44.25205 | -7.39207 | 25008 ft | 428 kts | 28° |
| 2026-05-07 11:59 | 44.27788 | -7.37145 | 25502 ft | 426 kts | 28° |
| 2026-05-07 11:59 | 44.29526 | -7.35754 | 25839 ft | 425 kts | 28° |
| 2026-05-07 11:59 | 44.32083 | -7.33700 | 26350 ft | 423 kts | 28° |
| 2026-05-07 11:59 | 44.34624 | -7.31650 | 26865 ft | 421 kts | 28° |
| 2026-05-07 12:00 | 44.37149 | -7.29606 | 27393 ft | 418 kts | 28° |
| 2026-05-07 12:00 | 44.39660 | -7.27578 | 27927 ft | 416 kts | 28° |
| 2026-05-07 12:00 | 44.42152 | -7.25566 | 28489 ft | 413 kts | 28° |
| 2026-05-07 12:00 | 44.44632 | -7.23567 | 29039 ft | 409 kts | 28° |
| 2026-05-07 12:01 | 44.47088 | -7.21590 | 29609 ft | 406 kts | 28° |
| 2026-05-07 12:01 | 44.49527 | -7.19628 | 30159 ft | 402 kts | 28° |
| 2026-05-07 12:01 | 44.51944 | -7.17681 | 30652 ft | 399 kts | 27° |
| 2026-05-07 12:01 | 44.54336 | -7.15751 | 31157 ft | 394 kts | 27° |
| 2026-05-07 12:02 | 44.56698 | -7.13837 | 31664 ft | 390 kts | 27° |
| 2026-05-07 12:02 | 44.59057 | -7.11923 | 31904 ft | 395 kts | 27° |
| 2026-05-07 12:02 | 44.61454 | -7.09977 | 31958 ft | 403 kts | 27° |
| 2026-05-07 12:03 | 44.66413 | -7.05954 | 31963 ft | 420 kts | 27° |
| 2026-05-07 12:03 | 44.71576 | -7.01753 | 31964 ft | 437 kts | 28° |
| 2026-05-07 12:04 | 44.76917 | -6.97385 | 31965 ft | 450 kts | 28° |
| 2026-05-07 12:04 | 44.82465 | -6.92953 | 31966 ft | 459 kts | 23° |
| 2026-05-07 12:05 | 44.88539 | -6.90102 | 31970 ft | 463 kts | 12° |
| 2026-05-07 12:05 | 44.94806 | -6.87829 | 31970 ft | 467 kts | 12° |
| 2026-05-07 12:06 | 45.01103 | -6.85525 | 31975 ft | 468 kts | 13° |
| 2026-05-07 12:06 | 45.07403 | -6.83185 | 31978 ft | 469 kts | 13° |
| 2026-05-07 12:07 | 45.13715 | -6.80840 | 31974 ft | 469 kts | 13° |
| 2026-05-07 12:07 | 45.20045 | -6.78501 | 31977 ft | 470 kts | 13° |
| 2026-05-07 12:08 | 45.26383 | -6.76149 | 31972 ft | 471 kts | 13° |
| 2026-05-07 12:08 | 45.32730 | -6.73784 | 31981 ft | 472 kts | 13° |
| 2026-05-07 12:09 | 45.39087 | -6.71405 | 31976 ft | 473 kts | 13° |
| 2026-05-07 12:09 | 45.45448 | -6.69027 | 31970 ft | 473 kts | 13° |
| 2026-05-07 12:10 | 45.51826 | -6.66639 | 31988 ft | 474 kts | 13° |
| 2026-05-07 12:10 | 45.58248 | -6.64219 | 31985 ft | 475 kts | 13° |
| 2026-05-07 12:11 | 45.64637 | -6.61809 | 31980 ft | 475 kts | 13° |
| 2026-05-07 12:11 | 45.71033 | -6.59388 | 31988 ft | 476 kts | 13° |
| 2026-05-07 12:12 | 45.77444 | -6.56969 | 31991 ft | 476 kts | 13° |
| 2026-05-07 12:12 | 45.83860 | -6.54538 | 31989 ft | 477 kts | 14° |
| 2026-05-07 12:13 | 45.90279 | -6.52093 | 31993 ft | 478 kts | 14° |
| 2026-05-07 12:13 | 45.96705 | -6.49640 | 31998 ft | 478 kts | 14° |
| 2026-05-07 12:14 | 46.03137 | -6.47184 | 31998 ft | 479 kts | 14° |
| 2026-05-07 12:14 | 46.09581 | -6.44724 | 31998 ft | 479 kts | 14° |
| 2026-05-07 12:15 | 46.16079 | -6.42228 | 31998 ft | 480 kts | 14° |
| 2026-05-07 12:15 | 46.22540 | -6.39737 | 32002 ft | 481 kts | 14° |
| 2026-05-07 12:16 | 46.29006 | -6.37242 | 32004 ft | 482 kts | 14° |
| 2026-05-07 12:16 | 46.35484 | -6.34738 | 32003 ft | 482 kts | 14° |
| 2026-05-07 12:17 | 46.41969 | -6.32223 | 32012 ft | 483 kts | 14° |
| 2026-05-07 12:17 | 46.48462 | -6.29692 | 32013 ft | 483 kts | 14° |
| 2026-05-07 12:18 | 46.54963 | -6.27164 | 32016 ft | 484 kts | 14° |
| 2026-05-07 12:18 | 46.61472 | -6.24629 | 32014 ft | 485 kts | 14° |
| 2026-05-07 12:19 | 46.67986 | -6.22062 | 32016 ft | 485 kts | 14° |
| 2026-05-07 12:19 | 46.74502 | -6.19499 | 32015 ft | 485 kts | 14° |
| 2026-05-07 12:20 | 46.81028 | -6.16936 | 32018 ft | 486 kts | 14° |
| 2026-05-07 12:20 | 46.87563 | -6.14363 | 32022 ft | 486 kts | 14° |
| 2026-05-07 12:21 | 46.94097 | -6.11777 | 32021 ft | 487 kts | 14° |
| 2026-05-07 12:21 | 47.00635 | -6.09187 | 32024 ft | 487 kts | 14° |
| 2026-05-07 12:22 | 47.07225 | -6.06566 | 32022 ft | 487 kts | 15° |
| 2026-05-07 12:22 | 47.13768 | -6.03950 | 32024 ft | 488 kts | 15° |
| 2026-05-07 12:23 | 47.20327 | -6.01330 | 32026 ft | 488 kts | 14° |
| 2026-05-07 12:23 | 47.26885 | -5.98711 | 32028 ft | 488 kts | 15° |
| 2026-05-07 12:24 | 47.33441 | -5.96082 | 32025 ft | 489 kts | 15° |
| 2026-05-07 12:24 | 47.40005 | -5.93432 | 32035 ft | 489 kts | 15° |
| 2026-05-07 12:25 | 47.46571 | -5.90788 | 32034 ft | 489 kts | 15° |
| 2026-05-07 12:25 | 47.53138 | -5.88128 | 32038 ft | 489 kts | 15° |
| 2026-05-07 12:26 | 47.59707 | -5.85451 | 32040 ft | 489 kts | 15° |
| 2026-05-07 12:26 | 47.66273 | -5.82772 | 32043 ft | 489 kts | 15° |
| 2026-05-07 12:27 | 47.72837 | -5.80096 | 32041 ft | 489 kts | 15° |
| 2026-05-07 12:27 | 47.79408 | -5.77417 | 32041 ft | 489 kts | 15° |
| 2026-05-07 12:28 | 47.85975 | -5.74720 | 32041 ft | 489 kts | 15° |
| 2026-05-07 12:28 | 47.92535 | -5.72012 | 32041 ft | 489 kts | 15° |
| 2026-05-07 12:29 | 47.99099 | -5.69310 | 32041 ft | 489 kts | 15° |
| 2026-05-07 12:29 | 48.05708 | -5.66585 | 32040 ft | 489 kts | 15° |
| 2026-05-07 12:30 | 48.12268 | -5.63870 | 32041 ft | 489 kts | 15° |
| 2026-05-07 12:30 | 48.18821 | -5.61137 | 32041 ft | 489 kts | 15° |
| 2026-05-07 12:31 | 48.25379 | -5.58399 | 32042 ft | 489 kts | 15° |
| 2026-05-07 12:31 | 48.31931 | -5.55662 | 32042 ft | 489 kts | 15° |
| 2026-05-07 12:32 | 48.37374 | -5.53386 | 32038 ft | 489 kts | 15° |
| 2026-05-07 12:32 | 48.43925 | -5.50636 | 32037 ft | 489 kts | 15° |
| 2026-05-07 12:33 | 48.53751 | -5.46507 | 32039 ft | 489 kts | 15° |
| 2026-05-07 12:33 | 48.60295 | -5.43736 | 32035 ft | 488 kts | 15° |
| 2026-05-07 12:34 | 48.66887 | -5.40941 | 32037 ft | 488 kts | 15° |
| 2026-05-07 12:34 | 48.73428 | -5.38153 | 32037 ft | 488 kts | 15° |
| 2026-05-07 12:35 | 48.79970 | -5.35361 | 32034 ft | 488 kts | 15° |
| 2026-05-07 12:35 | 48.86512 | -5.32563 | 32032 ft | 488 kts | 15° |
| 2026-05-07 12:36 | 48.93055 | -5.29767 | 32036 ft | 488 kts | 15° |
| 2026-05-07 12:36 | 48.99594 | -5.26950 | 32033 ft | 488 kts | 15° |
| 2026-05-07 12:37 | 49.06127 | -5.24132 | 32037 ft | 488 kts | 15° |
| 2026-05-07 12:37 | 49.12664 | -5.21318 | 32038 ft | 488 kts | 15° |
| 2026-05-07 12:38 | 49.19202 | -5.18498 | 32036 ft | 488 kts | 15° |
| 2026-05-07 12:38 | 49.25725 | -5.15669 | 32036 ft | 487 kts | 15° |
| 2026-05-07 12:39 | 49.32245 | -5.12826 | 32038 ft | 487 kts | 15° |
| 2026-05-07 12:39 | 49.38766 | -5.09974 | 32039 ft | 487 kts | 15° |
| 2026-05-07 12:40 | 49.45277 | -5.07119 | 32040 ft | 487 kts | 15° |
| 2026-05-07 12:40 | 49.51770 | -5.04167 | 32044 ft | 486 kts | 17° |
| 2026-05-07 12:41 | 49.58188 | -5.00875 | 32046 ft | 486 kts | 19° |
| 2026-05-07 12:41 | 49.64584 | -4.97469 | 32047 ft | 486 kts | 19° |
| 2026-05-07 12:42 | 49.71029 | -4.94100 | 32047 ft | 486 kts | 18° |
| 2026-05-07 12:42 | 49.77434 | -4.90797 | 32053 ft | 485 kts | 18° |
| 2026-05-07 12:43 | 49.83842 | -4.87491 | 32051 ft | 485 kts | 18° |
| 2026-05-07 12:43 | 49.90241 | -4.84175 | 32053 ft | 485 kts | 18° |
| 2026-05-07 12:44 | 49.96634 | -4.80841 | 32053 ft | 485 kts | 18° |
| 2026-05-07 12:44 | 50.03029 | -4.77500 | 32057 ft | 484 kts | 18° |
| 2026-05-07 12:45 | 50.09419 | -4.74161 | 32055 ft | 484 kts | 18° |
| 2026-05-07 12:45 | 50.15804 | -4.70817 | 32055 ft | 484 kts | 18° |
| 2026-05-07 12:46 | 50.22184 | -4.67459 | 32055 ft | 484 kts | 18° |
| 2026-05-07 12:46 | 50.28558 | -4.64086 | 32056 ft | 484 kts | 18° |
| 2026-05-07 12:47 | 50.34924 | -4.60695 | 32057 ft | 483 kts | 18° |
| 2026-05-07 12:47 | 50.41294 | -4.57301 | 32055 ft | 483 kts | 18° |
| 2026-05-07 12:48 | 50.47665 | -4.53912 | 32054 ft | 483 kts | 18° |
| 2026-05-07 12:48 | 50.54071 | -4.50487 | 32060 ft | 483 kts | 18° |
| 2026-05-07 12:49 | 50.60428 | -4.47088 | 32058 ft | 483 kts | 18° |
| 2026-05-07 12:49 | 50.66788 | -4.43683 | 32055 ft | 483 kts | 18° |
| 2026-05-07 12:50 | 50.73142 | -4.40253 | 32051 ft | 482 kts | 18° |
| 2026-05-07 12:50 | 50.79488 | -4.36809 | 32052 ft | 482 kts | 18° |
| 2026-05-07 12:51 | 50.85838 | -4.33371 | 32054 ft | 482 kts | 18° |
| 2026-05-07 12:51 | 50.92180 | -4.29913 | 32058 ft | 482 kts | 18° |
| 2026-05-07 12:52 | 50.98516 | -4.26451 | 32057 ft | 481 kts | 18° |
| 2026-05-07 12:52 | 51.04839 | -4.22997 | 32057 ft | 481 kts | 18° |
| 2026-05-07 12:53 | 51.11165 | -4.19528 | 32057 ft | 481 kts | 18° |
| 2026-05-07 12:53 | 51.17526 | -4.16037 | 32056 ft | 480 kts | 18° |
| 2026-05-07 12:54 | 51.23836 | -4.12548 | 32062 ft | 480 kts | 18° |
| 2026-05-07 12:54 | 51.30140 | -4.09052 | 32057 ft | 479 kts | 18° |
| 2026-05-07 12:55 | 51.36446 | -4.05569 | 32059 ft | 479 kts | 18° |
| 2026-05-07 12:55 | 51.42748 | -4.02082 | 32059 ft | 479 kts | 18° |
| 2026-05-07 12:56 | 51.49043 | -3.98572 | 32060 ft | 479 kts | 19° |
| 2026-05-07 12:56 | 51.55338 | -3.95038 | 32056 ft | 479 kts | 19° |
| 2026-05-07 12:57 | 51.61630 | -3.91504 | 32055 ft | 479 kts | 19° |
| 2026-05-07 12:57 | 51.67922 | -3.87958 | 32058 ft | 479 kts | 19° |
| 2026-05-07 12:58 | 51.74224 | -3.84399 | 32050 ft | 480 kts | 19° |
| 2026-05-07 12:58 | 51.80529 | -3.80834 | 32031 ft | 481 kts | 20° |
| 2026-05-07 12:59 | 51.86838 | -3.77246 | 32031 ft | 481 kts | 20° |
| 2026-05-07 12:59 | 51.93193 | -3.73621 | 32043 ft | 481 kts | 20° |
| 2026-05-07 13:00 | 51.99501 | -3.70012 | 32048 ft | 481 kts | 20° |
| 2026-05-07 13:00 | 52.05810 | -3.66385 | 32043 ft | 481 kts | 20° |
| 2026-05-07 13:01 | 52.12108 | -3.62765 | 32048 ft | 480 kts | 20° |
| 2026-05-07 13:01 | 52.18407 | -3.59136 | 32046 ft | 480 kts | 21° |
| 2026-05-07 13:02 | 52.21551 | -3.57326 | 31893 ft | 480 kts | 21° |
| 2026-05-07 13:02 | 52.24695 | -3.55513 | 31333 ft | 479 kts | 20° |
| 2026-05-07 13:02 | 52.27836 | -3.53696 | 30686 ft | 479 kts | 21° |
| 2026-05-07 13:02 | 52.30959 | -3.51883 | 29824 ft | 475 kts | 21° |
| 2026-05-07 13:03 | 52.34063 | -3.50076 | 28877 ft | 471 kts | 21° |
| 2026-05-07 13:03 | 52.37143 | -3.48280 | 27969 ft | 470 kts | 21° |
| 2026-05-07 13:03 | 52.40223 | -3.46483 | 27089 ft | 470 kts | 20° |
| 2026-05-07 13:03 | 52.43309 | -3.44683 | 26230 ft | 472 kts | 20° |
| 2026-05-07 13:04 | 52.46412 | -3.42871 | 25410 ft | 475 kts | 20° |
| 2026-05-07 13:04 | 52.48524 | -3.41636 | 24852 ft | 477 kts | 20° |
| 2026-05-07 13:04 | 52.51655 | -3.39801 | 24062 ft | 480 kts | 20° |
| 2026-05-07 13:04 | 52.54808 | -3.37948 | 23220 ft | 482 kts | 19° |
| 2026-05-07 13:05 | 52.57972 | -3.36083 | 22311 ft | 484 kts | 19° |
| 2026-05-07 13:05 | 52.61146 | -3.34210 | 21438 ft | 484 kts | 19° |
| 2026-05-07 13:05 | 52.64288 | -3.32356 | 20588 ft | 477 kts | 19° |
| 2026-05-07 13:05 | 52.67392 | -3.30514 | 19770 ft | 471 kts | 19° |
| 2026-05-07 13:06 | 52.70456 | -3.28690 | 18968 ft | 465 kts | 19° |
| 2026-05-07 13:06 | 52.73486 | -3.26880 | 18165 ft | 461 kts | 19° |
| 2026-05-07 13:06 | 52.76481 | -3.25087 | 17306 ft | 456 kts | 19° |
| 2026-05-07 13:06 | 52.79493 | -3.23282 | 16485 ft | 452 kts | 20° |
| 2026-05-07 13:07 | 52.82429 | -3.21518 | 15766 ft | 447 kts | 20° |
| 2026-05-07 13:07 | 52.85324 | -3.19773 | 15138 ft | 440 kts | 20° |
| 2026-05-07 13:07 | 52.88193 | -3.18090 | 14513 ft | 434 kts | 17° |
| 2026-05-07 13:07 | 52.91143 | -3.17242 | 13911 ft | 429 kts | 3° |
| 2026-05-07 13:08 | 52.94110 | -3.17008 | 13249 ft | 424 kts | 2° |
| 2026-05-07 13:08 | 52.97041 | -3.16787 | 12583 ft | 420 kts | 2° |
| 2026-05-07 13:08 | 52.99944 | -3.16563 | 11925 ft | 415 kts | 2° |
| 2026-05-07 13:08 | 53.02811 | -3.16334 | 11267 ft | 411 kts | 2° |
| 2026-05-07 13:09 | 53.05643 | -3.16105 | 10600 ft | 401 kts | 2° |
| 2026-05-07 13:09 | 53.08354 | -3.15887 | 9975 ft | 380 kts | 2° |
| 2026-05-07 13:09 | 53.10935 | -3.15682 | 9278 ft | 362 kts | 2° |
| 2026-05-07 13:09 | 53.13397 | -3.15485 | 8592 ft | 347 kts | 2° |
| 2026-05-07 13:10 | 53.15768 | -3.15296 | 7919 ft | 335 kts | 2° |
| 2026-05-07 13:10 | 53.18063 | -3.15061 | 7279 ft | 325 kts | 4° |
| 2026-05-07 13:10 | 53.20242 | -3.14757 | 7065 ft | 303 kts | 5° |
| 2026-05-07 13:10 | 53.22288 | -3.14436 | 6612 ft | 291 kts | 5° |
| 2026-05-07 13:11 | 53.24284 | -3.14112 | 6033 ft | 286 kts | 5° |
| 2026-05-07 13:11 | 53.26250 | -3.13797 | 5429 ft | 281 kts | 5° |
| 2026-05-07 13:11 | 53.28136 | -3.13137 | 4841 ft | 275 kts | 21° |
| 2026-05-07 13:11 | 53.29803 | -3.11653 | 4235 ft | 269 kts | 38° |
| 2026-05-07 13:12 | 53.31124 | -3.09509 | 3661 ft | 262 kts | 55° |
| 2026-05-07 13:12 | 53.32030 | -3.06900 | 3068 ft | 258 kts | 72° |
| 2026-05-07 13:12 | 53.32460 | -3.04052 | 2592 ft | 246 kts | 88° |
| 2026-05-07 13:12 | 53.32593 | -3.01337 | 2515 ft | 219 kts | 88° |
| 2026-05-07 13:13 | 53.32716 | -2.98945 | 2385 ft | 190 kts | 90° |
| 2026-05-07 13:13 | 53.32857 | -2.96833 | 1974 ft | 178 kts | 88° |
| 2026-05-07 13:13 | 53.33005 | -2.94833 | 1470 ft | 170 kts | 89° |
| 2026-05-07 13:13 | 53.33056 | -2.92900 | 1019 ft | 164 kts | 89° |
| 2026-05-07 13:14 | 53.33168 | -2.91060 | 685 ft | 154 kts | 89° |
| 2026-05-07 13:14 | 53.33180 | -2.89370 | 540 ft | 143 kts | 91° |
| 2026-05-07 13:14 | 53.33246 | -2.87733 | 280 ft | 140 kts | 92° |
| 2026-05-07 13:14 | 53.33313 | -2.86132 | 106 ft | 135 kts | 89° |
| 2026-05-07 13:15 | 53.33369 | -2.84734 | 90 ft | 99 kts | 85° |
| 2026-05-07 13:15 | 53.33411 | -2.83871 | 92 ft | 45 kts | 85° |
| 2026-05-07 13:15 | 53.33458 | -2.83625 | 89 ft | 9 kts | 356° |
| 2026-05-07 13:15 | 53.33502 | -2.83634 | 89 ft | 5 kts | 356° |
| 2026-05-07 13:16 | 53.33535 | -2.83637 | 89 ft | 4 kts | 356° |
| 2026-05-07 13:16 | 53.33576 | -2.83663 | 91 ft | 10 kts | 314° |
| 2026-05-07 13:16 | 53.33586 | -2.83767 | 89 ft | 9 kts | 266° |
| 2026-05-07 13:16 | 53.33581 | -2.83874 | 90 ft | 9 kts | 266° |
| 2026-05-07 13:17 | 53.33576 | -2.83985 | 89 ft | 10 kts | 265° |
| 2026-05-07 13:17 | 53.33570 | -2.84113 | 92 ft | 12 kts | 265° |
| 2026-05-07 13:17 | 53.33562 | -2.84275 | 89 ft | 16 kts | 266° |
| 2026-05-07 13:17 | 53.33553 | -2.84475 | 92 ft | 19 kts | 265° |
| 2026-05-07 13:18 | 53.33543 | -2.84711 | 89 ft | 20 kts | 266° |
| 2026-05-07 13:18 | 53.33535 | -2.84871 | 91 ft | 14 kts | 265° |
| 2026-05-07 13:18 | 53.33530 | -2.85026 | 89 ft | 6 kts | 282° |
| 2026-05-07 13:18 | 53.33562 | -2.85061 | 90 ft | 6 kts | 345° |
| 2026-05-07 13:19 | 53.33588 | -2.85082 | 93 ft | 3 kts | 297° |
| 2026-05-07 13:19 | 53.33588 | -2.85142 | 89 ft | 7 kts | 265° |
| 2026-05-07 13:19 | 53.33586 | -2.85191 | 89 ft | 1 kts | 265° |